createdAt,value
2022-12-04T00:01:44.587Z,7.90
2022-12-04T00:06:53.972Z,7.00
2022-12-04T00:12:00.652Z,6.40
2022-12-04T00:17:04.212Z,5.90
2022-12-04T00:22:10.388Z,6.15
2022-12-04T00:27:13.950Z,7.20
2022-12-04T00:32:17.518Z,5.82
2022-12-04T00:37:22.716Z,6.45
2022-12-04T00:42:26.291Z,6.35
2022-12-04T00:47:29.860Z,7.60
2022-12-04T00:52:35.084Z,7.63
2022-12-04T00:57:38.637Z,8.73
2022-12-04T01:02:42.214Z,8.65
2022-12-04T01:07:47.555Z,7.90
2022-12-04T01:12:51.864Z,8.10
2022-12-04T01:17:55.400Z,7.88
2022-12-04T01:23:00.636Z,8.02
2022-12-04T01:28:04.295Z,6.68
2022-12-04T01:33:08.464Z,6.82
2022-12-04T01:38:13.683Z,6.30
2022-12-04T01:43:17.527Z,5.43
2022-12-04T01:48:27.116Z,5.65
2022-12-04T01:53:34.507Z,5.20
2022-12-04T01:58:43.885Z,5.88
2022-12-04T02:03:47.488Z,5.63
2022-12-04T02:08:52.868Z,5.15
2022-12-04T02:14:08.729Z,5.83
2022-12-04T02:19:33.750Z,5.93
2022-12-04T02:24:50.571Z,5.90
2022-12-04T02:30:03.145Z,5.03
2022-12-04T02:35:13.966Z,5.25
2022-12-04T02:40:23.977Z,5.28
2022-12-04T02:45:34.684Z,7.25
2022-12-04T02:50:41.163Z,6.30
2022-12-04T02:55:48.808Z,5.45
2022-12-04T03:00:55.703Z,9.88
2022-12-04T03:06:03.786Z,7.18
2022-12-04T03:11:07.657Z,6.70
2022-12-04T03:16:16.569Z,7.55
2022-12-04T03:21:23.796Z,6.55
2022-12-04T03:26:30.061Z,6.95
2022-12-04T03:31:41.158Z,7.63
2022-12-04T03:36:53.419Z,6.57
2022-12-04T03:42:02.522Z,7.70
2022-12-04T03:47:12.728Z,7.00
2022-12-04T03:52:21.787Z,5.65
2022-12-04T03:57:29.045Z,6.88
2022-12-04T04:02:38.532Z,6.38
2022-12-04T04:07:48.580Z,6.80
2022-12-04T04:12:57.010Z,7.47
2022-12-04T04:18:03.262Z,6.82
2022-12-04T04:23:10.389Z,6.50
2022-12-04T04:28:35.270Z,7.15
2022-12-04T04:33:48.823Z,7.30
2022-12-04T04:39:01.400Z,6.80
2022-12-04T04:44:17.034Z,7.60
2022-12-04T04:49:25.206Z,7.57
2022-12-04T04:54:30.784Z,7.32
2022-12-04T04:59:34.354Z,6.53
2022-12-04T05:04:39.514Z,6.70
2022-12-04T05:09:43.075Z,6.78
2022-12-04T05:14:48.247Z,7.20
2022-12-04T05:19:53.824Z,6.93
2022-12-04T05:24:57.733Z,7.50
2022-12-04T05:30:01.312Z,7.22
2022-12-04T05:35:11.139Z,6.13
2022-12-04T05:40:15.432Z,6.40
2022-12-04T05:45:19.180Z,6.28
2022-12-04T05:50:24.438Z,5.90
2022-12-04T05:55:28.022Z,6.38
2022-12-04T06:00:33.582Z,5.30
2022-12-04T06:05:38.778Z,4.70
2022-12-04T06:10:42.471Z,4.50
2022-12-04T06:15:46.061Z,3.88
2022-12-04T06:20:52.503Z,4.32
2022-12-04T06:25:56.378Z,4.53
2022-12-04T06:31:02.687Z,6.07
2022-12-04T06:36:15.176Z,3.90
2022-12-04T06:41:21.344Z,4.05
2022-12-04T06:46:26.599Z,4.57
2022-12-04T06:51:33.506Z,4.93
2022-12-04T06:56:37.193Z,4.13
2022-12-04T07:01:40.937Z,3.92
2022-12-04T07:06:46.181Z,3.40
2022-12-04T07:11:49.719Z,3.58
2022-12-04T07:16:53.460Z,3.10
2022-12-04T07:21:58.705Z,3.03
2022-12-04T07:27:03.015Z,3.20
2022-12-04T07:32:07.460Z,3.30
2022-12-04T07:37:12.848Z,3.55
2022-12-04T07:42:21.002Z,3.50
2022-12-04T07:47:27.473Z,3.58
2022-12-04T07:52:35.980Z,3.33
2022-12-04T07:57:39.523Z,4.15
2022-12-04T08:02:43.072Z,3.90
2022-12-04T08:07:48.463Z,3.90
2022-12-04T08:12:52.056Z,4.03
2022-12-04T08:17:56.064Z,4.30
2022-12-04T08:23:01.287Z,4.10
2022-12-04T08:28:04.877Z,4.97
2022-12-04T08:33:08.417Z,4.60
2022-12-04T08:38:14.517Z,4.47
2022-12-04T08:43:18.116Z,4.88
2022-12-04T08:48:21.732Z,5.07
2022-12-04T08:53:28.042Z,5.70
2022-12-04T08:58:31.639Z,4.88
2022-12-04T09:03:35.582Z,5.82
2022-12-04T09:08:40.826Z,5.90
2022-12-04T09:13:45.283Z,5.50
2022-12-04T09:18:49.763Z,5.20
2022-12-04T09:23:54.953Z,4.65
2022-12-04T09:29:00.968Z,4.82
2022-12-04T09:34:04.861Z,5.05
2022-12-04T09:39:11.744Z,5.47
2022-12-04T09:44:22.297Z,5.78
2022-12-04T09:49:30.256Z,5.60
2022-12-04T09:54:41.477Z,5.15
2022-12-04T09:59:45.731Z,4.57
2022-12-04T10:04:51.410Z,3.35
2022-12-04T10:10:00.607Z,3.50
2022-12-04T10:15:15.133Z,2.63
2022-12-04T10:20:36.780Z,1.88
2022-12-04T10:25:43.959Z,1.33
2022-12-04T10:30:49.352Z,1.90
2022-12-04T10:35:54.858Z,1.35
2022-12-04T10:41:07.757Z,1.20
2022-12-04T10:46:19.399Z,1.00
2022-12-04T10:51:23.446Z,1.10
2022-12-04T10:56:28.615Z,1.02
2022-12-04T11:01:34.109Z,1.50
2022-12-04T11:06:38.789Z,1.10
2022-12-04T11:11:44.518Z,1.05
2022-12-04T11:16:50.414Z,1.83
2022-12-04T11:21:55.450Z,1.65
2022-12-04T11:27:02.877Z,1.55
2022-12-04T11:32:08.443Z,1.15
2022-12-04T11:37:21.846Z,2.10
2022-12-04T11:42:31.031Z,1.70
2022-12-04T11:47:34.639Z,1.90
2022-12-04T11:52:51.941Z,2.03
2022-12-04T11:58:13.454Z,3.50
2022-12-04T12:03:23.964Z,3.05
2022-12-04T12:08:37.765Z,3.25
2022-12-04T12:13:53.952Z,3.25
2022-12-04T12:19:18.502Z,3.20
2022-12-04T12:24:29.787Z,3.83
2022-12-04T12:29:56.515Z,3.45
2022-12-04T12:35:01.378Z,3.90
2022-12-04T12:40:11.347Z,3.60
2022-12-04T12:45:27.933Z,3.70
2022-12-04T12:55:45.237Z,3.28
2022-12-04T13:00:57.133Z,3.55
2022-12-04T13:06:06.828Z,3.67
2022-12-04T13:11:14.444Z,3.30
2022-12-04T13:16:25.213Z,3.08
2022-12-04T13:21:36.517Z,3.38
2022-12-04T13:26:49.423Z,3.90
2022-12-04T13:32:04.001Z,3.10
2022-12-04T13:37:34.348Z,3.50
2022-12-04T13:42:37.952Z,2.80
2022-12-04T13:47:43.142Z,2.90
2022-12-04T13:52:47.142Z,2.60
2022-12-04T13:57:55.504Z,2.60
2022-12-04T14:03:04.286Z,3.10
2022-12-04T14:08:22.292Z,2.80
2022-12-04T14:13:29.368Z,3.20
2022-12-04T14:18:34.777Z,3.50
2022-12-04T14:23:40.495Z,3.20
2022-12-04T14:28:44.074Z,2.70
2022-12-04T14:33:53.215Z,3.30
2022-12-04T14:39:13.123Z,3.00
2022-12-04T14:44:29.077Z,3.05
2022-12-04T14:49:47.240Z,2.83
2022-12-04T14:54:57.804Z,3.20
2022-12-04T15:00:01.791Z,2.78
2022-12-04T15:05:11.259Z,2.50
2022-12-04T15:10:21.028Z,1.70
2022-12-04T15:15:27.465Z,1.65
2022-12-04T15:20:39.069Z,2.05
2022-12-04T15:25:46.789Z,2.20
2022-12-04T15:30:52.255Z,2.05
2022-12-04T15:36:01.166Z,2.00
2022-12-04T15:41:05.484Z,1.90
2022-12-04T15:46:13.963Z,2.00
2022-12-04T15:51:22.053Z,1.75
2022-12-04T15:56:25.634Z,2.55
2022-12-04T16:01:38.452Z,1.90
2022-12-04T16:06:49.760Z,2.85
2022-12-04T16:12:00.843Z,2.70
2022-12-04T16:17:06.491Z,3.45
2022-12-04T16:22:20.089Z,2.70
2022-12-04T16:27:25.168Z,2.45
2022-12-04T16:32:32.359Z,3.38
2022-12-04T16:37:37.616Z,2.50
2022-12-04T16:42:41.960Z,2.78
2022-12-04T16:47:45.802Z,2.40
2022-12-04T16:52:51.280Z,2.60
2022-12-04T16:57:54.867Z,2.30
2022-12-04T17:02:59.074Z,3.15
2022-12-04T17:08:04.370Z,3.00
2022-12-04T17:13:07.940Z,2.40
2022-12-04T17:18:15.073Z,1.90
2022-12-04T17:23:22.927Z,2.10
2022-12-04T17:28:26.469Z,2.38
2022-12-04T17:33:30.264Z,1.70
2022-12-04T17:38:35.524Z,1.35
2022-12-04T17:43:39.088Z,1.02
2022-12-04T17:48:43.040Z,1.48
2022-12-04T17:53:48.723Z,2.08
2022-12-04T17:58:52.693Z,1.40
2022-12-04T18:03:57.645Z,1.60
2022-12-04T18:09:03.924Z,1.60
2022-12-04T18:19:16.424Z,1.75
2022-12-04T18:24:22.020Z,2.05
2022-12-04T18:29:27.107Z,1.57
2022-12-04T18:34:30.668Z,1.30
2022-12-04T18:39:35.879Z,2.22
2022-12-04T18:44:39.428Z,1.17
2022-12-04T18:49:43.054Z,1.38
2022-12-04T18:54:48.283Z,1.15
2022-12-04T18:59:52.170Z,1.03
2022-12-04T19:04:55.702Z,1.17
2022-12-04T19:10:16.059Z,1.67
2022-12-04T19:15:20.051Z,2.08
2022-12-04T19:20:23.615Z,1.63
2022-12-04T19:25:28.791Z,1.67
2022-12-04T19:30:34.436Z,0.73
2022-12-04T19:35:38.006Z,1.70
2022-12-04T19:40:43.226Z,1.40
2022-12-04T19:45:49.416Z,1.63
2022-12-04T19:50:53.049Z,1.70
2022-12-04T19:55:58.234Z,1.52
2022-12-04T20:01:02.046Z,1.33
2022-12-04T20:06:07.281Z,1.33
2022-12-04T20:11:13.748Z,1.20
2022-12-04T20:16:18.784Z,1.92
2022-12-04T20:21:22.853Z,1.92
2022-12-04T20:26:30.004Z,1.50
2022-12-04T20:31:35.077Z,1.90
2022-12-04T20:36:40.895Z,2.37
2022-12-04T20:41:46.616Z,1.45
2022-12-04T20:46:50.279Z,1.63
2022-12-04T20:51:53.943Z,1.65
2022-12-04T20:56:59.126Z,1.50
2022-12-04T21:02:02.710Z,2.00
2022-12-04T21:07:06.551Z,2.00
2022-12-04T21:12:12.272Z,1.65
2022-12-04T21:17:17.576Z,2.20
2022-12-04T21:22:21.244Z,1.40
2022-12-04T21:27:26.556Z,1.90
2022-12-04T21:32:30.159Z,2.10
2022-12-04T21:37:33.705Z,2.15
2022-12-04T21:42:38.950Z,2.80
2022-12-04T21:47:42.506Z,2.13
2022-12-04T21:52:46.056Z,1.80
2022-12-04T21:57:52.208Z,2.80
2022-12-04T22:02:55.863Z,1.30
2022-12-04T22:07:59.481Z,1.10
2022-12-04T22:13:06.343Z,1.55
2022-12-04T22:18:10.717Z,2.10
2022-12-04T22:23:14.300Z,1.08
2022-12-04T22:28:19.534Z,1.45
2022-12-04T22:33:23.094Z,0.93
2022-12-04T22:38:26.657Z,2.03
2022-12-04T22:43:36.392Z,2.10
2022-12-04T22:48:44.634Z,3.00
2022-12-04T22:53:50.229Z,2.97
2022-12-04T22:58:55.873Z,2.70
2022-12-04T23:03:59.966Z,3.05
2022-12-04T23:09:07.049Z,3.05
2022-12-04T23:14:15.396Z,2.30
2022-12-04T23:19:20.450Z,2.25
2022-12-04T23:24:24.135Z,2.17
2022-12-04T23:29:52.033Z,2.08
2022-12-04T23:34:53.759Z,1.85
2022-12-04T23:39:57.582Z,3.15
2022-12-04T23:45:02.882Z,2.10
2022-12-04T23:50:07.302Z,2.20
2022-12-04T23:55:11.097Z,2.03
